Latest Weather Observations for Gannett Cay

IDQ60801

Issued at 10:03 am EST Friday 29 July 2016 (issued every 30 minutes, with the page automatically refreshed every 10 minutes)

About weather observations | Map of weather stations | Latest weather observations for QLD | Other Formats
Station Details ID: 200831 Name: GANNET CAY Lat: -21.98 Lon: 152.47 Height: 2.3 m
Data from the previous 72 hours. | See also: Recent months for locations in Queensland
Date/Time
EST
Temp
°C
App
Temp
°C
Dew
Point
°C
Rel
Hum
%
Delta-T
°C
Wind Press
QNH
hPa
Press
MSL
hPa
Rain since
9am
mm
Dir  Spd
km/h
Gust
km/h
Spd
kts
Gust
kts
29/10:00am 22.1 - - - - SE 33 41 18 22 1020.3 - -
29/09:30am 22.1 - - - - SE 33 39 18 21 1020.4 - -
29/09:29am 22.0 - - - - SE 33 35 18 19 1020.4 1020.5 -
29/09:00am 22.1 - - - - SE 37 43 20 23 1020.2 - -
29/08:30am 22.1 - - - - SE 35 41 19 22 1020.1 - -
29/08:29am 22.2 - - - - SE 35 - 19 - - 1020.2 -
29/08:00am 22.1 - - - - SE 32 35 17 19 1020.0 - -
29/07:30am 22.0 - - - - SE 32 37 17 20 1019.8 - -
29/07:29am 22.0 - - - - SE 32 - 17 - - 1019.9 -
29/07:00am 21.9 - - - - SE 33 37 18 20 1019.5 - -
29/06:30am 21.8 - - - - ESE 33 39 18 21 1019.2 - -
29/06:29am 21.7 - - - - ESE 33 - 18 - - 1019.3 -
29/06:00am 21.8 - - - - SE 33 39 18 21 1018.7 - -
29/05:30am 21.7 - - - - ESE 32 37 17 20 1018.7 - -
29/05:29am 21.7 - - - - ESE 32 - 17 - - 1018.8 -
29/05:00am 21.8 - - - - ESE 33 37 18 20 1018.3 - -
29/04:30am 21.6 - - - - ESE 33 39 18 21 1018.2 - -
29/04:29am 21.7 - - - - ESE 33 - 18 - - 1018.3 -
29/04:00am 21.6 - - - - SE 35 41 19 22 1018.2 - -
29/03:30am 21.5 - - - - ESE 37 43 20 23 1018.3 - -
29/03:29am 21.5 - - - - ESE 37 - 20 - - 1018.4 -
29/03:00am 21.6 - - - - ESE 37 44 20 24 1018.3 - -
29/02:30am 21.7 - - - - ESE 35 41 19 22 1018.5 - -
29/02:29am 21.7 - - - - ESE 35 - 19 - - 1018.6 -
29/02:00am 21.9 - - - - ESE 35 43 19 23 1018.4 - -
29/01:30am 21.9 - - - - SE 39 44 21 24 1018.8 - -
29/01:29am 21.9 - - - - SE 39 - 21 - - 1018.8 -
29/01:00am 22.0 - - - - ESE 39 44 21 24 1019.0 - -
29/12:30am 22.0 - - - - ESE 37 43 20 23 1019.4 - -
29/12:29am 22.0 - - - - ESE 37 - 20 - - 1019.5 -
29/12:00am 22.2 - - - - SE 35 46 19 25 1019.6 - -
 
Date/Time
EST
Temp
°C
App
Temp
°C
Dew
Point
°C
Rel
Hum
%
Delta-T
°C
Wind Press
QNH
hPa
Press
MSL
hPa
Rain since
9am
mm
Dir  Spd
km/h
Gust
km/h
Spd
kts
Gust
kts
28/11:30pm 22.0 - - - - SE 37 43 20 23 1019.7 - -
28/11:29pm 22.0 - - - - SE 37 - 20 - - 1019.8 -
28/11:00pm 21.9 - - - - SE 35 41 19 22 1019.9 - -
28/10:30pm 21.8 - - - - SE 33 37 18 20 1020.2 - -
28/10:29pm 21.8 - - - - SE 33 - 18 - - 1020.3 -
28/10:00pm 21.8 - - - - SE 35 43 19 23 1020.4 - -
28/09:30pm 21.8 - - - - SE 37 43 20 23 1020.5 - -
28/09:29pm 21.9 - - - - SE 37 - 20 - - 1020.6 -
28/09:00pm 21.8 - - - - SE 35 43 19 23 1020.4 - -
28/08:30pm 21.5 - - - - SSE 37 43 20 23 1020.3 - -
28/08:29pm 21.5 - - - - SSE 37 - 20 - - 1020.4 -
28/08:00pm 21.3 - - - - SE 35 43 19 23 1020.3 - -
28/07:30pm 21.0 - - - - SE 37 43 20 23 1020.1 - -
28/07:29pm 21.0 - - - - SE 37 - 20 - - 1020.2 -
28/07:00pm 20.8 - - - - SSE 33 41 18 22 1020.0 - -
28/06:30pm 20.7 - - - - SSE 35 43 19 23 1019.7 - -
28/06:29pm 20.7 - - - - SSE 35 - 19 - - 1019.8 -
28/06:00pm 20.6 - - - - SSE 37 43 20 23 1019.5 - -
28/05:30pm 20.4 - - - - SSE 39 46 21 25 1019.2 - -
28/05:29pm 20.4 - - - - SSE 37 - 20 - - 1019.3 -
28/05:00pm 20.5 - - - - SSE 37 44 20 24 1018.9 - -
28/04:30pm 20.5 - - - - SSE 41 46 22 25 1018.7 - -
28/04:29pm 20.6 - - - - SSE 39 - 21 - - 1018.8 -
28/04:00pm 20.7 - - - - SSE 41 46 22 25 1018.4 - -
28/03:30pm 20.5 - - - - SSE 37 46 20 25 1018.5 - -
28/03:29pm 20.4 - - - - SSE 37 - 20 - - 1018.6 -
28/03:00pm 20.2 - - - - SSE 39 44 21 24 1018.6 - -
28/02:30pm 20.3 - - - - SSE 37 44 20 24 1018.8 - -
28/02:29pm 20.3 - - - - SSE 37 - 20 - - 1018.8 -
28/02:00pm 20.3 - - - - SSE 37 46 20 25 1018.8 - -
28/01:30pm 20.8 - - - - SSE 39 46 21 25 1019.0 - -
28/01:29pm 20.8 - - - - SSE 37 - 20 - - 1019.1 -
28/01:00pm 20.6 - - - - SSE 39 46 21 25 1019.2 - -
28/12:30pm 20.9 - - - - SSE 39 48 21 26 1019.5 - -
28/12:29pm 20.7 - - - - SSE 41 - 22 - - 1019.6 -
28/12:00pm 20.7 - - - - SSE 41 48 22 26 1019.9 - -
28/11:30am 20.8 - - - - SSE 43 50 23 27 1020.4 - -
28/11:29am 20.9 - - - - SSE 43 - 23 - - 1020.4 -
28/11:00am 20.7 - - - - SSE 43 50 23 27 1020.7 - -
28/10:30am 20.9 - - - - SSE 43 50 23 27 1020.8 - -
28/10:29am 20.8 - - - - SSE 43 - 23 - - 1020.9 -
28/10:00am 20.9 - - - - SSE 43 48 23 26 1021.2 - -
28/09:30am 21.0 - - - - SSE 41 50 22 27 1021.3 - -
28/09:29am 21.0 - - - - SSE 41 - 22 - - 1021.4 -
28/09:00am 21.1 - - - - SSE 43 50 23 27 1021.3 - -
28/08:30am 21.1 - - - - SSE 43 48 23 26 1021.1 - -
28/08:29am 21.0 - - - - SSE 43 - 23 - - 1021.2 -
28/08:00am 21.1 - - - - SSE 43 50 23 27 1020.8 - -
28/07:30am 21.1 - - - - SSE 44 50 24 27 1020.6 - -
28/07:29am 21.1 - - - - SSE 44 - 24 - - 1020.7 -
28/07:00am 21.0 - - - - SSE 46 52 25 28 1020.3 - -
28/06:30am 20.9 - - - - SSE 48 56 26 30 1019.7 - -
28/06:29am 20.8 - - - - SSE 48 - 26 - - 1019.8 -
28/06:00am 21.0 - - - - SSE 50 56 27 30 1019.6 - -
28/05:30am 21.2 - - - - SSE 48 57 26 31 1019.3 - -
28/05:29am 21.2 - - - - SSE 48 - 26 - - 1019.4 -
28/05:00am 21.1 - - - - SSE 48 56 26 30 1019.1 - -
28/04:30am 21.2 - - - - S 50 56 27 30 1018.6 - -
28/04:29am 21.2 - - - - SSE 50 - 27 - - 1018.7 -
28/04:00am 21.3 - - - - SSE 48 57 26 31 1018.8 - -
28/03:30am 21.4 - - - - S 44 50 24 27 1019.1 - -
28/03:29am 21.4 - - - - S 44 - 24 - - 1019.2 -
28/03:00am 21.6 - - - - S 46 54 25 29 1019.2 - -
28/02:30am 21.6 - - - - SSE 44 52 24 28 1019.0 - -
28/02:29am 21.7 - - - - S 44 - 24 - - 1019.1 -
28/02:00am 22.0 - - - - SSE 39 48 21 26 1019.1 - -
28/01:30am 22.1 - - - - SSE 39 44 21 24 1019.2 - -
28/01:29am 22.1 - - - - S 39 - 21 - - 1019.3 -
28/01:00am 22.2 - - - - SSE 33 39 18 21 1019.6 - -
28/12:30am 22.3 - - - - SSE 30 33 16 18 1019.8 - -
28/12:29am 22.3 - - - - SSE 30 - 16 - - 1019.9 -
28/12:00am 22.3 - - - - SSE 28 30 15 16 1019.6 - -
 
Date/Time
EST
Temp
°C
App
Temp
°C
Dew
Point
°C
Rel
Hum
%
Delta-T
°C
Wind Press
QNH
hPa
Press
MSL
hPa
Rain since
9am
mm
Dir  Spd
km/h
Gust
km/h
Spd
kts
Gust
kts
27/11:30pm 22.2 - - - - SSE 28 32 15 17 1019.5 - -
27/11:29pm 22.3 - - - - SSE 28 - 15 - - 1019.6 -
27/11:00pm 22.1 - - - - SSE 28 32 15 17 1019.5 - -
27/10:30pm 22.0 - - - - SSE 26 30 14 16 1019.4 - -
27/10:29pm 22.0 - - - - SSE 26 - 14 - - 1019.5 -
27/10:00pm 22.1 - - - - SSE 30 33 16 18 1019.4 - -
27/09:30pm 22.1 - - - - SSE 28 33 15 18 1019.3 - -
27/09:29pm 22.1 - - - - SSE 28 - 15 - - 1019.4 -
27/09:00pm 22.1 - - - - SSE 26 32 14 17 1019.2 - -
27/08:30pm 21.9 - - - - SSE 24 28 13 15 1019.2 - -
27/08:29pm 22.0 - - - - SSE 24 - 13 - - 1019.3 -
27/08:00pm 22.0 - - - - SSE 24 28 13 15 1018.9 - -
27/07:30pm 22.0 - - - - S 30 33 16 18 1018.8 - -
27/07:29pm 22.1 - - - - S 30 - 16 - - 1018.9 -
27/07:00pm 22.1 - - - - S 28 32 15 17 1018.5 - -
27/06:30pm 21.8 - - - - S 28 35 15 19 1018.1 - -
27/06:29pm 21.9 - - - - S 30 - 16 - - 1018.2 -
27/06:00pm 22.0 - - - - SSE 32 35 17 19 1017.6 - -
27/05:30pm 21.8 - - - - SSE 33 37 18 20 1017.2 - -
27/05:29pm 21.8 - - - - SSE 33 - 18 - - 1017.3 -
27/05:00pm 22.2 - - - - SSE 30 33 16 18 1017.0 - -
27/04:30pm 22.3 - - - - SSE 32 35 17 19 1016.6 - -
27/04:29pm 22.4 - - - - SSE 32 - 17 - - 1016.7 -
27/04:00pm 22.3 - - - - SSE 32 33 17 18 1016.4 - -
27/03:30pm 22.6 - - - - SSE 26 30 14 16 1015.9 - -
27/03:29pm 22.6 - - - - SSE 26 - 14 - - 1016.0 -
27/03:00pm 23.0 - - - - SSE 24 30 13 16 1016.0 - -
27/02:30pm 22.9 - - - - S 28 32 15 17 1016.1 - -
27/02:29pm 22.7 - - - - S 28 - 15 - - 1016.2 -
27/02:00pm 22.9 - - - - SSE 24 28 13 15 1016.3 - -
27/01:30pm 22.8 - - - - SSE 26 28 14 15 1016.3 - -
27/01:29pm 23.0 - - - - SSE 26 - 14 - - 1016.5 -
27/01:00pm 22.7 - - - - S 28 30 15 16 1016.5 - -
27/12:30pm 23.2 - - - - SSE 26 32 14 17 1016.7 - -
27/12:29pm 23.1 - - - - SSE 28 - 15 - - 1016.8 -
27/12:00pm 23.3 - - - - SSE 24 28 13 15 1017.1 - -
27/11:30am 22.8 - - - - S 26 28 14 15 1017.2 - -
27/11:29am 22.9 - - - - S 26 - 14 - - 1017.4 -
27/11:00am 23.4 - - - - SSE 20 24 11 13 1017.7 - -
27/10:30am 23.4 - - - - SSE 19 20 10 11 1017.9 - -
27/10:29am 23.5 - - - - SSE 19 - 10 - - 1018.0 -
27/10:00am 23.3 - - - - SSE 19 20 10 11 1018.1 - -
27/09:30am 23.3 - - - - SSE 19 22 10 12 1018.3 - -
27/09:29am 23.2 - - - - SSE 19 - 10 - - 1018.4 -
27/09:00am 23.5 - - - - SSE 19 22 10 12 1018.5 - -
27/08:30am 23.2 - - - - SSE 20 24 11 13 1018.3 - -
27/08:29am 23.2 - - - - SSE 20 - 11 - - 1018.4 -
27/08:00am 23.3 - - - - SSE 19 20 10 11 1018.0 - -
27/07:30am 22.9 - - - - ESE 19 20 10 11 1017.7 - -
27/07:29am 22.9 - - - - ESE 19 - 10 - - 1017.8 -
27/07:00am 22.6 - - - - SE 20 24 11 13 1017.5 - -
27/06:30am 22.3 - - - - SE 20 22 11 12 1017.3 - -
27/06:29am 22.3 - - - - SE 20 - 11 - - 1017.5 -
27/06:00am 22.3 - - - - SE 22 24 12 13 1017.2 - -
27/05:30am 22.3 - - - - SE 22 26 12 14 1017.2 - -
27/05:29am 22.3 - - - - SE 22 - 12 - - 1017.3 -
27/05:00am 22.3 - - - - SSE 26 28 14 15 1017.0 - -
27/04:30am 22.3 - - - - SSE 24 26 13 14 1016.9 - -
27/04:29am 22.3 - - - - SSE 24 - 13 - - 1017.0 -
27/04:00am 22.3 - - - - SSE 24 28 13 15 1016.7 - -
27/03:30am 22.3 - - - - SSE 22 28 12 15 1016.8 - -
27/03:29am 22.4 - - - - SSE 22 - 12 - - 1016.9 -
27/03:00am 22.4 - - - - SSE 22 24 12 13 1016.9 - -
27/02:30am 22.4 - - - - SSE 22 26 12 14 1016.8 - -
27/02:29am 22.5 - - - - SSE 22 - 12 - - 1017.0 -
27/02:00am 22.5 - - - - SE 22 26 12 14 1016.9 - -
27/01:30am 22.6 - - - - SE 22 24 12 13 1017.1 - -
27/01:29am 22.5 - - - - SE 22 - 12 - - 1017.2 -
27/01:00am 22.6 - - - - ESE 22 24 12 13 1017.1 - -
27/12:30am 22.6 - - - - ESE 20 24 11 13 1017.1 - -
27/12:29am 22.6 - - - - ESE 20 - 11 - - 1017.2 -
27/12:00am 22.6 - - - - ESE 22 24 12 13 1017.2 - -
 
Date/Time
EST
Temp
°C
App
Temp
°C
Dew
Point
°C
Rel
Hum
%
Delta-T
°C
Wind Press
QNH
hPa
Press
MSL
hPa
Rain since
9am
mm
Dir  Spd
km/h
Gust
km/h
Spd
kts
Gust
kts
26/11:30pm 22.5 - - - - ESE 24 26 13 14 1017.2 - -
26/11:29pm 22.5 - - - - ESE 24 - 13 - - 1017.3 -
26/11:00pm 22.5 - - - - ESE 24 28 13 15 1017.2 - -
26/10:30pm 22.5 - - - - ESE 26 30 14 16 1017.3 - -
26/10:29pm 22.5 - - - - ESE 26 - 14 - - 1017.4 -
26/10:00pm 22.5 - - - - ESE 30 33 16 18 1017.4 - -
26/09:30pm 22.6 - - - - ESE 30 33 16 18 1017.3 - -
26/09:29pm 22.6 - - - - ESE 30 - 16 - - 1017.4 -
26/09:00pm 22.6 - - - - SE 30 33 16 18 1017.2 - -
26/08:30pm 22.6 - - - - SE 30 33 16 18 1017.1 - -
26/08:29pm 22.6 - - - - SE 30 - 16 - - 1017.2 -
26/08:00pm 22.6 - - - - SE 32 35 17 19 1016.9 - -
26/07:30pm 22.6 - - - - SE 30 33 16 18 1016.8 - -
26/07:29pm 22.6 - - - - SE 30 - 16 - - 1016.9 -
26/07:00pm 22.6 - - - - SE 28 32 15 17 1016.4 - -
26/06:30pm 22.5 - - - - SE 30 32 16 17 1016.0 - -
26/06:29pm 22.6 - - - - SE 30 - 16 - - 1016.1 -
26/06:00pm 22.5 - - - - SE 28 32 15 17 1015.8 - -
26/05:30pm 22.6 - - - - ESE 28 32 15 17 1015.6 - -
26/05:29pm 22.6 - - - - ESE 28 - 15 - - 1015.7 -
26/05:00pm 22.9 - - - - ESE 26 30 14 16 1015.3 - -
26/04:30pm 23.3 - - - - ESE 24 28 13 15 1015.1 - -
26/04:29pm 23.2 - - - - ESE 24 - 13 - - 1015.2 -
26/04:00pm 23.6 - - - - SE 22 24 12 13 1015.0 - -
26/03:30pm 23.7 - - - - SE 20 24 11 13 1014.9 - -
26/03:29pm 23.7 - - - - SE 20 - 11 - - 1015.0 -
26/03:00pm 23.5 - - - - ESE 20 22 11 12 1014.9 - -
26/02:30pm 23.6 - - - - SE 20 22 11 12 1015.1 - -
26/02:29pm 23.6 - - - - SE 19 - 10 - - 1015.2 -
26/02:00pm 23.5 - - - - ESE 19 20 10 11 1015.3 - -
26/01:30pm 23.6 - - - - SE 17 20 9 11 1015.4 - -
26/01:29pm 23.5 - - - - SE 17 - 9 - - 1015.5 -
26/01:00pm 23.6 - - - - SE 17 19 9 10 1015.7 - -
26/12:30pm 23.3 - - - - ESE 17 19 9 10 1016.0 - -
26/12:29pm 23.3 - - - - SE 17 - 9 - - 1016.1 -
26/12:00pm 23.7 - - - - ESE 17 19 9 10 1016.4 - -
26/11:30am 23.5 - - - - SE 17 19 9 10 1016.8 - -
26/11:29am 23.6 - - - - SE 17 - 9 - - 1016.9 -
26/11:00am 23.5 - - - - SE 13 17 7 9 1017.0 - -
26/10:30am 23.8 - - - - SE 17 20 9 11 1017.3 - -
26/10:29am 23.7 - - - - SSE 17 - 9 - - 1017.4 -

Other Formats:

Comma delimited format used in spreadsheet applications
http://www.bom.gov.au/fwo/IDQ60801/IDQ60801.94379.axf

JavaScript Object Notation format (JSON) in row-major order
http://www.bom.gov.au/fwo/IDQ60801/IDQ60801.94379.json